Impacts METAR Board
IDs:

KSLC - Salt Lake City Intl, UT, US

Updated at: 2300 UTC 19 Jul 2018
Potential Impact None Slight Moderate High
Time 19/11Z 19/12Z 19/13Z 19/14Z 19/15Z 19/16Z 19/17Z 19/18Z 19/19Z 19/20Z 19/21Z 19/22Z 19/23Z
Temp72 72 72 75 80 84 86 89 92 93 95 96 97
Dewpt44 39 38 42 39 39 39 40 41 37 35 32 31
Altim30.05 30.05 30.07 30.09 30.10 30.11 30.11 30.11 30.10 30.08 30.06 30.03 30.01
VIS10 10 10 10 10 10 10 10 10 10 10 10 10
CIG-- -- -- -- -- -- -- -- -- -- -- -- --
CoverSCTFEWSCTSCTFEWFEWFEWSCTSCTSCTSCTSCTSCT
FltCatVFRVFRVFRVFRVFRVFRVFRVFRVFRVFRVFRVFRVFR
WX--------------------------
WDir160130140150120002803100260300320
WSpd4 5 4 5 7 0 3 6 7 0 6 7 8
WGst-- -- -- -- -- -- -- -- -- -- -- -- --
Raw hourly METARs
KSLC 191054Z 16004KT 10SM FEW110 SCT200 22/07 A3005 RMK AO2 SLP111 T02220067
KSLC 191154Z 13005KT 10SM FEW120 FEW180 22/04 A3005 RMK AO2 SLP112 T02220039 10267 20211 53005
KSLC 191254Z 14004KT 10SM SCT180 22/03 A3007 RMK AO2 SLP118 T02220033
KSLC 191354Z 15005KT 10SM FEW180 SCT200 24/06 A3009 RMK AO2 SLP124 T02390056
KSLC 191454Z 12007KT 10SM FEW180 FEW200 27/04 A3010 RMK AO2 SLP128 T02670039 51016
KSLC 191554Z 00000KT 10SM FEW200 29/04 A3011 RMK AO2 SLP132 T02890039
KSLC 191654Z VRB03KT 10SM FEW160 FEW200 30/04 A3011 RMK AO2 SLP131 T03000039
KSLC 191754Z 28006KT 10SM FEW160 SCT180 32/04 A3011 RMK AO2 SLP131 T03170044 10317 20211 51001
KSLC 191854Z 31007KT 10SM FEW140 SCT170 33/05 A3010 RMK AO2 SLP127 T03330050
KSLC 191954Z 00000KT 10SM SCT180 34/03 A3008 RMK AO2 SLP120 T03390028
KSLC 192054Z 26006KT 10SM SCT150 35/02 A3006 RMK AO2 SLP113 TCU DSNT S T03500017 58016
KSLC 192154Z 30007KT 270V340 10SM FEW140 SCT240 36/00 A3003 RMK AO2 SLP103 T03560000
KSLC 192254Z 32008KT 10SM FEW090 FEW140 SCT250 36/M01 A3001 RMK AO2 SLP096 T03611006



Page loaded:  23:16 UTC  |   04:16 PM Pacific  |   05:16 PM Mountain  |   06:16 PM Central  |   07:16 PM Eastern

 

ADVISORIES

FORECASTS

FORECASTS

OBSERVATIONS

USER TOOLS

ABOUT US